sensor_id;sensor_type;location;lat;lon;timestamp;P1;durP1;ratioP1;P2;durP2;ratioP2
46308;SDS011;32037;50.820;6.494;2023-12-22T00:01:31;5.00;;;1.30;;
46308;SDS011;32037;50.820;6.494;2023-12-22T00:03:59;1.63;;;0.80;;
46308;SDS011;32037;50.820;6.494;2023-12-22T00:06:27;3.83;;;2.27;;
46308;SDS011;32037;50.820;6.494;2023-12-22T00:08:55;3.13;;;1.13;;
46308;SDS011;32037;50.820;6.494;2023-12-22T00:11:23;2.00;;;1.30;;
46308;SDS011;32037;50.820;6.494;2023-12-22T00:13:52;2.00;;;0.90;;
46308;SDS011;32037;50.820;6.494;2023-12-22T00:16:20;4.77;;;1.40;;
46308;SDS011;32037;50.820;6.494;2023-12-22T00:18:58;2.28;;;1.25;;
46308;SDS011;32037;50.820;6.494;2023-12-22T00:21:26;3.10;;;1.67;;
46308;SDS011;32037;50.820;6.494;2023-12-22T00:23:54;2.90;;;1.10;;
46308;SDS011;32037;50.820;6.494;2023-12-22T00:26:23;2.60;;;1.10;;
46308;SDS011;32037;50.820;6.494;2023-12-22T00:28:51;5.10;;;1.77;;
46308;SDS011;32037;50.820;6.494;2023-12-22T00:31:19;4.80;;;1.80;;
46308;SDS011;32037;50.820;6.494;2023-12-22T00:33:47;2.67;;;1.20;;
46308;SDS011;32037;50.820;6.494;2023-12-22T00:36:17;3.70;;;1.27;;
46308;SDS011;32037;50.820;6.494;2023-12-22T00:38:49;4.50;;;1.07;;
46308;SDS011;32037;50.820;6.494;2023-12-22T00:41:17;5.85;;;1.20;;
46308;SDS011;32037;50.820;6.494;2023-12-22T00:43:45;2.80;;;0.83;;
46308;SDS011;32037;50.820;6.494;2023-12-22T00:46:14;2.60;;;1.00;;
46308;SDS011;32037;50.820;6.494;2023-12-22T00:48:42;3.00;;;1.10;;
46308;SDS011;32037;50.820;6.494;2023-12-22T00:51:10;4.03;;;1.50;;
46308;SDS011;32037;50.820;6.494;2023-12-22T00:53:39;2.53;;;1.10;;
46308;SDS011;32037;50.820;6.494;2023-12-22T00:56:07;4.80;;;1.37;;
46308;SDS011;32037;50.820;6.494;2023-12-22T00:58:35;2.60;;;1.13;;
46308;SDS011;32037;50.820;6.494;2023-12-22T01:01:03;2.30;;;1.20;;
46308;SDS011;32037;50.820;6.494;2023-12-22T01:03:31;7.97;;;1.30;;
46308;SDS011;32037;50.820;6.494;2023-12-22T01:06:00;2.00;;;0.80;;
46308;SDS011;32037;50.820;6.494;2023-12-22T01:08:28;4.20;;;1.20;;
46308;SDS011;32037;50.820;6.494;2023-12-22T01:10:58;3.93;;;1.40;;
46308;SDS011;32037;50.820;6.494;2023-12-22T01:13:26;5.30;;;1.60;;
46308;SDS011;32037;50.820;6.494;2023-12-22T01:15:54;3.95;;;1.10;;
46308;SDS011;32037;50.820;6.494;2023-12-22T01:18:22;2.90;;;1.25;;
46308;SDS011;32037;50.820;6.494;2023-12-22T01:20:56;2.40;;;1.30;;
46308;SDS011;32037;50.820;6.494;2023-12-22T01:23:24;3.43;;;1.00;;
46308;SDS011;32037;50.820;6.494;2023-12-22T01:25:52;2.63;;;1.20;;
46308;SDS011;32037;50.820;6.494;2023-12-22T01:28:22;4.77;;;1.40;;
46308;SDS011;32037;50.820;6.494;2023-12-22T01:30:50;2.87;;;1.60;;
46308;SDS011;32037;50.820;6.494;2023-12-22T01:33:18;2.80;;;0.95;;
46308;SDS011;32037;50.820;6.494;2023-12-22T01:35:46;5.00;;;1.37;;
46308;SDS011;32037;50.820;6.494;2023-12-22T01:38:14;3.47;;;1.20;;
46308;SDS011;32037;50.820;6.494;2023-12-22T01:40:42;2.77;;;1.30;;
46308;SDS011;32037;50.820;6.494;2023-12-22T01:43:11;3.78;;;1.25;;
46308;SDS011;32037;50.820;6.494;2023-12-22T01:45:41;4.23;;;1.53;;
46308;SDS011;32037;50.820;6.494;2023-12-22T01:48:11;3.58;;;1.23;;
46308;SDS011;32037;50.820;6.494;2023-12-22T01:50:41;3.83;;;1.70;;
46308;SDS011;32037;50.820;6.494;2023-12-22T01:53:10;5.40;;;1.60;;
46308;SDS011;32037;50.820;6.494;2023-12-22T01:55:38;2.38;;;1.00;;
46308;SDS011;32037;50.820;6.494;2023-12-22T01:58:08;5.55;;;1.65;;
46308;SDS011;32037;50.820;6.494;2023-12-22T02:00:38;5.23;;;1.40;;
46308;SDS011;32037;50.820;6.494;2023-12-22T02:03:10;3.93;;;1.40;;
46308;SDS011;32037;50.820;6.494;2023-12-22T02:05:40;5.70;;;1.67;;
46308;SDS011;32037;50.820;6.494;2023-12-22T02:08:08;2.77;;;1.40;;
46308;SDS011;32037;50.820;6.494;2023-12-22T02:10:37;2.80;;;1.43;;
46308;SDS011;32037;50.820;6.494;2023-12-22T02:13:05;4.70;;;1.03;;
46308;SDS011;32037;50.820;6.494;2023-12-22T02:15:33;3.93;;;1.50;;
46308;SDS011;32037;50.820;6.494;2023-12-22T02:18:03;7.70;;;1.77;;
46308;SDS011;32037;50.820;6.494;2023-12-22T02:20:37;4.90;;;1.38;;
46308;SDS011;32037;50.820;6.494;2023-12-22T02:23:07;3.40;;;1.42;;
46308;SDS011;32037;50.820;6.494;2023-12-22T02:25:35;2.28;;;1.23;;
46308;SDS011;32037;50.820;6.494;2023-12-22T02:28:04;3.15;;;1.10;;
46308;SDS011;32037;50.820;6.494;2023-12-22T02:30:38;5.53;;;1.17;;
46308;SDS011;32037;50.820;6.494;2023-12-22T02:33:10;3.93;;;1.00;;
46308;SDS011;32037;50.820;6.494;2023-12-22T02:35:42;5.70;;;1.33;;
46308;SDS011;32037;50.820;6.494;2023-12-22T02:38:15;3.50;;;1.30;;
46308;SDS011;32037;50.820;6.494;2023-12-22T02:40:44;4.53;;;1.47;;
46308;SDS011;32037;50.820;6.494;2023-12-22T02:43:13;2.80;;;1.48;;
46308;SDS011;32037;50.820;6.494;2023-12-22T02:45:41;5.07;;;1.60;;
46308;SDS011;32037;50.820;6.494;2023-12-22T02:48:09;4.55;;;1.58;;
46308;SDS011;32037;50.820;6.494;2023-12-22T02:50:37;3.23;;;1.30;;
46308;SDS011;32037;50.820;6.494;2023-12-22T02:53:05;4.50;;;1.40;;
46308;SDS011;32037;50.820;6.494;2023-12-22T02:55:35;8.70;;;2.20;;
46308;SDS011;32037;50.820;6.494;2023-12-22T02:58:03;3.60;;;1.30;;
46308;SDS011;32037;50.820;6.494;2023-12-22T03:00:31;3.20;;;1.37;;
46308;SDS011;32037;50.820;6.494;2023-12-22T03:02:59;2.60;;;1.30;;
46308;SDS011;32037;50.820;6.494;2023-12-22T03:05:27;4.38;;;1.40;;
46308;SDS011;32037;50.820;6.494;2023-12-22T03:07:55;2.30;;;0.95;;
46308;SDS011;32037;50.820;6.494;2023-12-22T03:10:24;5.80;;;2.10;;
46308;SDS011;32037;50.820;6.494;2023-12-22T03:12:53;3.97;;;1.65;;
46308;SDS011;32037;50.820;6.494;2023-12-22T03:15:21;2.70;;;1.30;;
46308;SDS011;32037;50.820;6.494;2023-12-22T03:17:49;4.83;;;2.13;;
46308;SDS011;32037;50.820;6.494;2023-12-22T03:20:18;4.07;;;1.13;;
46308;SDS011;32037;50.820;6.494;2023-12-22T03:22:46;4.50;;;1.33;;
46308;SDS011;32037;50.820;6.494;2023-12-22T03:25:14;3.33;;;1.27;;
46308;SDS011;32037;50.820;6.494;2023-12-22T03:27:42;6.38;;;1.98;;
46308;SDS011;32037;50.820;6.494;2023-12-22T03:30:14;3.70;;;1.10;;
46308;SDS011;32037;50.820;6.494;2023-12-22T03:32:41;5.70;;;1.50;;
46308;SDS011;32037;50.820;6.494;2023-12-22T03:35:09;4.03;;;1.33;;
46308;SDS011;32037;50.820;6.494;2023-12-22T03:37:38;3.10;;;1.25;;
46308;SDS011;32037;50.820;6.494;2023-12-22T03:40:07;4.60;;;1.60;;
46308;SDS011;32037;50.820;6.494;2023-12-22T03:42:36;3.17;;;1.60;;
46308;SDS011;32037;50.820;6.494;2023-12-22T03:45:05;5.13;;;1.40;;
46308;SDS011;32037;50.820;6.494;2023-12-22T03:47:35;5.75;;;1.60;;
46308;SDS011;32037;50.820;6.494;2023-12-22T03:50:03;3.50;;;1.50;;
46308;SDS011;32037;50.820;6.494;2023-12-22T03:52:33;3.50;;;1.92;;
46308;SDS011;32037;50.820;6.494;2023-12-22T03:55:01;2.85;;;1.20;;
46308;SDS011;32037;50.820;6.494;2023-12-22T03:57:29;3.67;;;1.50;;
46308;SDS011;32037;50.820;6.494;2023-12-22T03:59:58;4.63;;;1.60;;
46308;SDS011;32037;50.820;6.494;2023-12-22T04:02:30;3.33;;;1.20;;
46308;SDS011;32037;50.820;6.494;2023-12-22T04:04:59;2.80;;;1.30;;
46308;SDS011;32037;50.820;6.494;2023-12-22T04:07:28;4.80;;;1.57;;
46308;SDS011;32037;50.820;6.494;2023-12-22T04:09:56;3.23;;;1.33;;
46308;SDS011;32037;50.820;6.494;2023-12-22T04:12:24;5.50;;;2.07;;
46308;SDS011;32037;50.820;6.494;2023-12-22T04:14:52;5.40;;;1.90;;
46308;SDS011;32037;50.820;6.494;2023-12-22T04:17:20;4.05;;;1.23;;
46308;SDS011;32037;50.820;6.494;2023-12-22T04:19:48;5.47;;;2.07;;
46308;SDS011;32037;50.820;6.494;2023-12-22T04:22:18;3.73;;;1.70;;
46308;SDS011;32037;50.820;6.494;2023-12-22T04:24:46;4.63;;;1.53;;
46308;SDS011;32037;50.820;6.494;2023-12-22T04:27:14;4.47;;;1.37;;
46308;SDS011;32037;50.820;6.494;2023-12-22T04:29:42;3.40;;;1.70;;
46308;SDS011;32037;50.820;6.494;2023-12-22T04:32:10;3.75;;;1.50;;
46308;SDS011;32037;50.820;6.494;2023-12-22T04:34:38;5.53;;;1.93;;
46308;SDS011;32037;50.820;6.494;2023-12-22T04:37:06;5.18;;;1.50;;
46308;SDS011;32037;50.820;6.494;2023-12-22T04:39:36;3.10;;;1.27;;
46308;SDS011;32037;50.820;6.494;2023-12-22T04:42:04;4.27;;;1.13;;
46308;SDS011;32037;50.820;6.494;2023-12-22T04:44:32;5.00;;;1.30;;
46308;SDS011;32037;50.820;6.494;2023-12-22T04:47:00;7.73;;;1.40;;
46308;SDS011;32037;50.820;6.494;2023-12-22T04:49:28;3.38;;;1.52;;
46308;SDS011;32037;50.820;6.494;2023-12-22T04:51:56;7.97;;;1.87;;
46308;SDS011;32037;50.820;6.494;2023-12-22T04:54:28;4.40;;;1.52;;
46308;SDS011;32037;50.820;6.494;2023-12-22T04:56:58;5.22;;;1.80;;
46308;SDS011;32037;50.820;6.494;2023-12-22T04:59:26;4.45;;;1.60;;
46308;SDS011;32037;50.820;6.494;2023-12-22T05:01:54;5.53;;;1.50;;
46308;SDS011;32037;50.820;6.494;2023-12-22T05:04:22;4.82;;;1.75;;
46308;SDS011;32037;50.820;6.494;2023-12-22T05:06:50;5.03;;;1.83;;
46308;SDS011;32037;50.820;6.494;2023-12-22T05:09:19;4.82;;;1.85;;
46308;SDS011;32037;50.820;6.494;2023-12-22T05:11:47;5.83;;;1.47;;
46308;SDS011;32037;50.820;6.494;2023-12-22T05:14:16;4.93;;;1.60;;
46308;SDS011;32037;50.820;6.494;2023-12-22T05:16:44;3.00;;;1.70;;
46308;SDS011;32037;50.820;6.494;2023-12-22T05:19:12;4.47;;;1.48;;
46308;SDS011;32037;50.820;6.494;2023-12-22T05:21:40;3.72;;;1.70;;
46308;SDS011;32037;50.820;6.494;2023-12-22T05:24:08;4.73;;;1.60;;
46308;SDS011;32037;50.820;6.494;2023-12-22T05:26:36;5.30;;;1.77;;
46308;SDS011;32037;50.820;6.494;2023-12-22T05:29:04;4.30;;;1.45;;
46308;SDS011;32037;50.820;6.494;2023-12-22T05:31:36;6.33;;;1.60;;
46308;SDS011;32037;50.820;6.494;2023-12-22T05:34:06;3.38;;;1.88;;
46308;SDS011;32037;50.820;6.494;2023-12-22T05:36:37;8.70;;;2.13;;
46308;SDS011;32037;50.820;6.494;2023-12-22T05:39:05;4.82;;;1.80;;
46308;SDS011;32037;50.820;6.494;2023-12-22T05:41:36;5.80;;;1.70;;
46308;SDS011;32037;50.820;6.494;2023-12-22T05:44:04;4.55;;;1.63;;
46308;SDS011;32037;50.820;6.494;2023-12-22T05:46:36;3.93;;;1.30;;
46308;SDS011;32037;50.820;6.494;2023-12-22T05:49:05;5.53;;;1.60;;
46308;SDS011;32037;50.820;6.494;2023-12-22T05:51:36;4.15;;;1.55;;
46308;SDS011;32037;50.820;6.494;2023-12-22T05:54:05;3.55;;;1.73;;
46308;SDS011;32037;50.820;6.494;2023-12-22T05:56:34;4.45;;;1.70;;
46308;SDS011;32037;50.820;6.494;2023-12-22T05:59:02;4.38;;;1.60;;
46308;SDS011;32037;50.820;6.494;2023-12-22T06:01:30;3.03;;;1.30;;
46308;SDS011;32037;50.820;6.494;2023-12-22T06:04:00;5.93;;;1.30;;
46308;SDS011;32037;50.820;6.494;2023-12-22T06:06:28;8.32;;;2.10;;
46308;SDS011;32037;50.820;6.494;2023-12-22T06:08:56;3.75;;;1.70;;
46308;SDS011;32037;50.820;6.494;2023-12-22T06:11:25;5.80;;;1.73;;
46308;SDS011;32037;50.820;6.494;2023-12-22T06:13:53;4.53;;;1.63;;
46308;SDS011;32037;50.820;6.494;2023-12-22T06:16:24;4.68;;;1.40;;
46308;SDS011;32037;50.820;6.494;2023-12-22T06:18:52;6.10;;;1.90;;
46308;SDS011;32037;50.820;6.494;2023-12-22T06:21:22;3.53;;;1.57;;
46308;SDS011;32037;50.820;6.494;2023-12-22T06:23:50;5.77;;;1.60;;
46308;SDS011;32037;50.820;6.494;2023-12-22T06:26:18;3.08;;;1.42;;
46308;SDS011;32037;50.820;6.494;2023-12-22T06:28:46;5.18;;;1.60;;
46308;SDS011;32037;50.820;6.494;2023-12-22T06:31:16;3.35;;;1.30;;
46308;SDS011;32037;50.820;6.494;2023-12-22T06:33:46;8.43;;;1.65;;
46308;SDS011;32037;50.820;6.494;2023-12-22T06:36:18;3.88;;;1.30;;
46308;SDS011;32037;50.820;6.494;2023-12-22T06:38:48;3.65;;;1.25;;
46308;SDS011;32037;50.820;6.494;2023-12-22T06:41:18;5.30;;;2.03;;
46308;SDS011;32037;50.820;6.494;2023-12-22T06:43:52;3.67;;;1.73;;
46308;SDS011;32037;50.820;6.494;2023-12-22T06:46:21;3.22;;;1.40;;
46308;SDS011;32037;50.820;6.494;2023-12-22T06:48:52;4.80;;;2.60;;
46308;SDS011;32037;50.820;6.494;2023-12-22T06:51:21;3.53;;;1.43;;
46308;SDS011;32037;50.820;6.494;2023-12-22T06:53:52;7.13;;;2.17;;
46308;SDS011;32037;50.820;6.494;2023-12-22T06:56:21;5.70;;;1.90;;
46308;SDS011;32037;50.820;6.494;2023-12-22T06:58:51;4.43;;;1.42;;
46308;SDS011;32037;50.820;6.494;2023-12-22T07:01:21;4.80;;;1.47;;
46308;SDS011;32037;50.820;6.494;2023-12-22T07:03:50;6.67;;;1.87;;
46308;SDS011;32037;50.820;6.494;2023-12-22T07:06:18;3.83;;;1.33;;
46308;SDS011;32037;50.820;6.494;2023-12-22T07:11:58;5.00;;;1.33;;
46308;SDS011;32037;50.820;6.494;2023-12-22T07:14:27;4.78;;;1.60;;
46308;SDS011;32037;50.820;6.494;2023-12-22T07:16:57;5.25;;;1.98;;
46308;SDS011;32037;50.820;6.494;2023-12-22T07:19:27;5.33;;;1.53;;
46308;SDS011;32037;50.820;6.494;2023-12-22T07:21:55;6.90;;;1.83;;
46308;SDS011;32037;50.820;6.494;2023-12-22T07:24:23;5.13;;;1.70;;
46308;SDS011;32037;50.820;6.494;2023-12-22T07:26:53;8.25;;;2.50;;
46308;SDS011;32037;50.820;6.494;2023-12-22T07:29:21;4.10;;;1.88;;
46308;SDS011;32037;50.820;6.494;2023-12-22T07:31:50;8.23;;;2.70;;
46308;SDS011;32037;50.820;6.494;2023-12-22T07:34:18;3.60;;;1.58;;
46308;SDS011;32037;50.820;6.494;2023-12-22T07:36:49;9.68;;;1.95;;
46308;SDS011;32037;50.820;6.494;2023-12-22T07:39:31;8.30;;;1.95;;
46308;SDS011;32037;50.820;6.494;2023-12-22T07:42:02;5.45;;;2.40;;
46308;SDS011;32037;50.820;6.494;2023-12-22T07:44:33;4.72;;;1.98;;
46308;SDS011;32037;50.820;6.494;2023-12-22T07:47:01;5.22;;;2.15;;
46308;SDS011;32037;50.820;6.494;2023-12-22T07:49:29;6.43;;;2.42;;
46308;SDS011;32037;50.820;6.494;2023-12-22T07:51:58;6.90;;;2.28;;
46308;SDS011;32037;50.820;6.494;2023-12-22T07:54:29;6.95;;;1.70;;
46308;SDS011;32037;50.820;6.494;2023-12-22T07:56:57;13.85;;;2.70;;
46308;SDS011;32037;50.820;6.494;2023-12-22T07:59:27;5.30;;;2.00;;
46308;SDS011;32037;50.820;6.494;2023-12-22T08:01:57;5.35;;;2.50;;
46308;SDS011;32037;50.820;6.494;2023-12-22T08:04:26;6.30;;;2.90;;
46308;SDS011;32037;50.820;6.494;2023-12-22T08:06:54;3.75;;;1.90;;
46308;SDS011;32037;50.820;6.494;2023-12-22T08:09:23;5.03;;;2.03;;
46308;SDS011;32037;50.820;6.494;2023-12-22T08:11:51;12.35;;;2.72;;
46308;SDS011;32037;50.820;6.494;2023-12-22T08:14:22;5.47;;;2.00;;
46308;SDS011;32037;50.820;6.494;2023-12-22T08:16:51;8.05;;;2.00;;
46308;SDS011;32037;50.820;6.494;2023-12-22T08:19:20;7.30;;;2.30;;
46308;SDS011;32037;50.820;6.494;2023-12-22T08:21:50;5.72;;;2.33;;
46308;SDS011;32037;50.820;6.494;2023-12-22T08:24:20;6.15;;;2.28;;
46308;SDS011;32037;50.820;6.494;2023-12-22T08:26:49;6.60;;;2.30;;
46308;SDS011;32037;50.820;6.494;2023-12-22T08:29:18;8.90;;;2.10;;
46308;SDS011;32037;50.820;6.494;2023-12-22T08:31:46;5.15;;;1.92;;
46308;SDS011;32037;50.820;6.494;2023-12-22T08:34:16;10.55;;;3.45;;
46308;SDS011;32037;50.820;6.494;2023-12-22T08:36:44;11.40;;;4.07;;
46308;SDS011;32037;50.820;6.494;2023-12-22T08:39:13;14.20;;;5.15;;
46308;SDS011;32037;50.820;6.494;2023-12-22T08:41:41;12.20;;;4.60;;
46308;SDS011;32037;50.820;6.494;2023-12-22T08:44:10;13.13;;;3.80;;
46308;SDS011;32037;50.820;6.494;2023-12-22T08:46:41;8.57;;;3.20;;
46308;SDS011;32037;50.820;6.494;2023-12-22T08:49:09;10.27;;;3.42;;
46308;SDS011;32037;50.820;6.494;2023-12-22T08:51:39;9.48;;;3.00;;
46308;SDS011;32037;50.820;6.494;2023-12-22T08:54:07;6.80;;;3.70;;
46308;SDS011;32037;50.820;6.494;2023-12-22T08:56:35;14.53;;;3.30;;
46308;SDS011;32037;50.820;6.494;2023-12-22T08:59:03;7.10;;;2.38;;
46308;SDS011;32037;50.820;6.494;2023-12-22T09:01:32;5.20;;;2.40;;
46308;SDS011;32037;50.820;6.494;2023-12-22T09:04:00;5.28;;;2.22;;
46308;SDS011;32037;50.820;6.494;2023-12-22T09:06:28;6.07;;;2.63;;
46308;SDS011;32037;50.820;6.494;2023-12-22T09:08:57;5.33;;;2.97;;
46308;SDS011;32037;50.820;6.494;2023-12-22T09:11:25;8.60;;;2.53;;
46308;SDS011;32037;50.820;6.494;2023-12-22T09:13:53;11.03;;;2.63;;
46308;SDS011;32037;50.820;6.494;2023-12-22T09:16:22;5.35;;;2.75;;
46308;SDS011;32037;50.820;6.494;2023-12-22T09:18:51;5.63;;;2.35;;
46308;SDS011;32037;50.820;6.494;2023-12-22T09:21:20;7.27;;;2.27;;
46308;SDS011;32037;50.820;6.494;2023-12-22T09:23:48;9.68;;;2.28;;
46308;SDS011;32037;50.820;6.494;2023-12-22T09:26:18;7.85;;;2.45;;
46308;SDS011;32037;50.820;6.494;2023-12-22T09:28:46;7.75;;;2.13;;
46308;SDS011;32037;50.820;6.494;2023-12-22T09:31:17;6.57;;;2.78;;
46308;SDS011;32037;50.820;6.494;2023-12-22T09:33:45;6.10;;;2.27;;
46308;SDS011;32037;50.820;6.494;2023-12-22T09:36:14;15.43;;;2.73;;
46308;SDS011;32037;50.820;6.494;2023-12-22T09:38:42;6.95;;;1.90;;
46308;SDS011;32037;50.820;6.494;2023-12-22T09:41:10;6.20;;;2.97;;
46308;SDS011;32037;50.820;6.494;2023-12-22T09:43:40;4.72;;;2.20;;
46308;SDS011;32037;50.820;6.494;2023-12-22T09:46:09;6.95;;;2.10;;
46308;SDS011;32037;50.820;6.494;2023-12-22T09:48:40;5.93;;;2.30;;
46308;SDS011;32037;50.820;6.494;2023-12-22T09:51:10;9.20;;;2.93;;
46308;SDS011;32037;50.820;6.494;2023-12-22T09:53:39;6.20;;;1.90;;
46308;SDS011;32037;50.820;6.494;2023-12-22T09:56:08;5.30;;;2.03;;
46308;SDS011;32037;50.820;6.494;2023-12-22T09:58:36;6.65;;;3.03;;
46308;SDS011;32037;50.820;6.494;2023-12-22T10:01:06;5.73;;;2.10;;
46308;SDS011;32037;50.820;6.494;2023-12-22T10:03:36;5.97;;;2.20;;
46308;SDS011;32037;50.820;6.494;2023-12-22T10:06:08;4.70;;;1.58;;
46308;SDS011;32037;50.820;6.494;2023-12-22T10:08:36;3.57;;;1.60;;
46308;SDS011;32037;50.820;6.494;2023-12-22T10:11:05;6.13;;;2.10;;
46308;SDS011;32037;50.820;6.494;2023-12-22T10:13:36;4.13;;;1.80;;
46308;SDS011;32037;50.820;6.494;2023-12-22T10:16:08;5.10;;;2.20;;
46308;SDS011;32037;50.820;6.494;2023-12-22T10:18:36;3.83;;;1.70;;
46308;SDS011;32037;50.820;6.494;2023-12-22T10:21:08;5.40;;;1.80;;
46308;SDS011;32037;50.820;6.494;2023-12-22T10:23:36;5.90;;;2.72;;
46308;SDS011;32037;50.820;6.494;2023-12-22T10:26:04;6.50;;;1.70;;
46308;SDS011;32037;50.820;6.494;2023-12-22T10:28:33;5.65;;;1.98;;
46308;SDS011;32037;50.820;6.494;2023-12-22T10:31:02;8.90;;;2.40;;
46308;SDS011;32037;50.820;6.494;2023-12-22T10:33:34;5.20;;;1.90;;
46308;SDS011;32037;50.820;6.494;2023-12-22T10:36:03;3.80;;;1.67;;
46308;SDS011;32037;50.820;6.494;2023-12-22T10:38:33;4.73;;;1.63;;
46308;SDS011;32037;50.820;6.494;2023-12-22T10:41:01;3.85;;;1.70;;
46308;SDS011;32037;50.820;6.494;2023-12-22T10:43:30;6.33;;;2.40;;
46308;SDS011;32037;50.820;6.494;2023-12-22T10:45:58;2.87;;;1.60;;
46308;SDS011;32037;50.820;6.494;2023-12-22T10:48:27;5.03;;;1.70;;
46308;SDS011;32037;50.820;6.494;2023-12-22T10:50:58;3.45;;;1.45;;
46308;SDS011;32037;50.820;6.494;2023-12-22T10:53:26;5.53;;;1.77;;
46308;SDS011;32037;50.820;6.494;2023-12-22T10:55:55;3.40;;;1.73;;
46308;SDS011;32037;50.820;6.494;2023-12-22T10:58:24;4.03;;;1.40;;
46308;SDS011;32037;50.820;6.494;2023-12-22T11:00:53;4.72;;;1.45;;
46308;SDS011;32037;50.820;6.494;2023-12-22T11:03:22;4.07;;;1.53;;
46308;SDS011;32037;50.820;6.494;2023-12-22T11:05:58;4.95;;;1.75;;
46308;SDS011;32037;50.820;6.494;2023-12-22T11:08:31;2.67;;;1.35;;
46308;SDS011;32037;50.820;6.494;2023-12-22T11:11:02;2.50;;;1.85;;
46308;SDS011;32037;50.820;6.494;2023-12-22T11:13:40;2.33;;;1.10;;
46308;SDS011;32037;50.820;6.494;2023-12-22T11:16:13;4.15;;;1.75;;
46308;SDS011;32037;50.820;6.494;2023-12-22T11:18:42;3.27;;;1.47;;
46308;SDS011;32037;50.820;6.494;2023-12-22T11:21:13;5.03;;;1.70;;
46308;SDS011;32037;50.820;6.494;2023-12-22T11:23:41;1.85;;;1.10;;
46308;SDS011;32037;50.820;6.494;2023-12-22T11:26:10;3.63;;;1.50;;
46308;SDS011;32037;50.820;6.494;2023-12-22T11:28:40;2.00;;;1.13;;
46308;SDS011;32037;50.820;6.494;2023-12-22T11:31:10;2.45;;;1.65;;
46308;SDS011;32037;50.820;6.494;2023-12-22T11:33:40;4.00;;;1.40;;
46308;SDS011;32037;50.820;6.494;2023-12-22T11:36:30;3.93;;;1.50;;
46308;SDS011;32037;50.820;6.494;2023-12-22T11:38:59;4.10;;;1.90;;
46308;SDS011;32037;50.820;6.494;2023-12-22T11:41:28;2.33;;;1.33;;
46308;SDS011;32037;50.820;6.494;2023-12-22T11:44:00;1.97;;;0.80;;
46308;SDS011;32037;50.820;6.494;2023-12-22T11:46:30;4.50;;;1.07;;
46308;SDS011;32037;50.820;6.494;2023-12-22T11:49:00;4.47;;;1.70;;
46308;SDS011;32037;50.820;6.494;2023-12-22T11:51:32;2.42;;;1.00;;
46308;SDS011;32037;50.820;6.494;2023-12-22T11:54:02;3.50;;;0.97;;
46308;SDS011;32037;50.820;6.494;2023-12-22T11:56:30;3.10;;;1.30;;
46308;SDS011;32037;50.820;6.494;2023-12-22T11:58:58;3.13;;;1.50;;
46308;SDS011;32037;50.820;6.494;2023-12-22T12:01:28;2.90;;;1.00;;
46308;SDS011;32037;50.820;6.494;2023-12-22T12:03:59;2.70;;;1.10;;
46308;SDS011;32037;50.820;6.494;2023-12-22T12:06:32;1.88;;;1.15;;
46308;SDS011;32037;50.820;6.494;2023-12-22T12:09:04;3.63;;;1.20;;
46308;SDS011;32037;50.820;6.494;2023-12-22T12:14:44;1.80;;;1.02;;
46308;SDS011;32037;50.820;6.494;2023-12-22T12:17:16;2.75;;;1.10;;
46308;SDS011;32037;50.820;6.494;2023-12-22T12:19:46;1.73;;;1.10;;
46308;SDS011;32037;50.820;6.494;2023-12-22T12:22:17;2.17;;;1.08;;
46308;SDS011;32037;50.820;6.494;2023-12-22T12:24:47;2.17;;;1.00;;
46308;SDS011;32037;50.820;6.494;2023-12-22T12:27:17;3.25;;;1.55;;
46308;SDS011;32037;50.820;6.494;2023-12-22T12:29:46;3.15;;;1.10;;
46308;SDS011;32037;50.820;6.494;2023-12-22T12:32:14;1.90;;;1.40;;
46308;SDS011;32037;50.820;6.494;2023-12-22T12:34:42;2.35;;;1.52;;
46308;SDS011;32037;50.820;6.494;2023-12-22T12:37:11;1.50;;;0.90;;
46308;SDS011;32037;50.820;6.494;2023-12-22T12:39:41;2.95;;;1.10;;
46308;SDS011;32037;50.820;6.494;2023-12-22T12:42:11;1.50;;;0.97;;
46308;SDS011;32037;50.820;6.494;2023-12-22T12:44:43;2.07;;;1.10;;
46308;SDS011;32037;50.820;6.494;2023-12-22T12:47:14;3.47;;;1.88;;
46308;SDS011;32037;50.820;6.494;2023-12-22T12:49:43;2.00;;;1.20;;
46308;SDS011;32037;50.820;6.494;2023-12-22T12:52:12;2.70;;;1.45;;
46308;SDS011;32037;50.820;6.494;2023-12-22T12:54:42;1.87;;;1.00;;
46308;SDS011;32037;50.820;6.494;2023-12-22T12:57:13;4.33;;;1.60;;
46308;SDS011;32037;50.820;6.494;2023-12-22T12:59:44;2.20;;;1.23;;
46308;SDS011;32037;50.820;6.494;2023-12-22T13:02:14;2.10;;;1.27;;
46308;SDS011;32037;50.820;6.494;2023-12-22T13:04:43;1.70;;;0.97;;
46308;SDS011;32037;50.820;6.494;2023-12-22T13:07:11;1.70;;;1.10;;
46308;SDS011;32037;50.820;6.494;2023-12-22T13:09:40;2.30;;;1.00;;
46308;SDS011;32037;50.820;6.494;2023-12-22T13:12:10;1.50;;;1.00;;
46308;SDS011;32037;50.820;6.494;2023-12-22T13:14:39;6.40;;;1.20;;
46308;SDS011;32037;50.820;6.494;2023-12-22T13:17:07;2.63;;;1.23;;
46308;SDS011;32037;50.820;6.494;2023-12-22T13:19:37;2.10;;;1.13;;
46308;SDS011;32037;50.820;6.494;2023-12-22T13:22:05;1.77;;;1.17;;
46308;SDS011;32037;50.820;6.494;2023-12-22T13:24:34;3.00;;;1.23;;
46308;SDS011;32037;50.820;6.494;2023-12-22T13:27:02;2.30;;;1.40;;
46308;SDS011;32037;50.820;6.494;2023-12-22T13:29:44;3.20;;;1.70;;
46308;SDS011;32037;50.820;6.494;2023-12-22T13:32:15;2.60;;;1.40;;
46308;SDS011;32037;50.820;6.494;2023-12-22T13:34:48;3.87;;;1.80;;
46308;SDS011;32037;50.820;6.494;2023-12-22T13:37:17;3.63;;;1.53;;
46308;SDS011;32037;50.820;6.494;2023-12-22T13:39:46;2.57;;;1.23;;
46308;SDS011;32037;50.820;6.494;2023-12-22T13:42:15;2.53;;;1.23;;
46308;SDS011;32037;50.820;6.494;2023-12-22T13:44:47;1.70;;;1.20;;
46308;SDS011;32037;50.820;6.494;2023-12-22T13:47:16;1.80;;;1.17;;
46308;SDS011;32037;50.820;6.494;2023-12-22T13:49:45;2.63;;;1.40;;
46308;SDS011;32037;50.820;6.494;2023-12-22T13:52:24;3.23;;;1.90;;
46308;SDS011;32037;50.820;6.494;2023-12-22T13:54:54;2.63;;;1.50;;
46308;SDS011;32037;50.820;6.494;2023-12-22T13:57:24;3.20;;;1.40;;
46308;SDS011;32037;50.820;6.494;2023-12-22T13:59:54;2.33;;;1.33;;
46308;SDS011;32037;50.820;6.494;2023-12-22T14:02:22;4.00;;;1.33;;
46308;SDS011;32037;50.820;6.494;2023-12-22T14:04:54;4.43;;;1.65;;
46308;SDS011;32037;50.820;6.494;2023-12-22T14:07:22;1.90;;;1.37;;
46308;SDS011;32037;50.820;6.494;2023-12-22T14:09:50;2.47;;;1.50;;
46308;SDS011;32037;50.820;6.494;2023-12-22T14:12:18;1.97;;;1.63;;
46308;SDS011;32037;50.820;6.494;2023-12-22T14:14:56;2.30;;;1.43;;
46308;SDS011;32037;50.820;6.494;2023-12-22T14:17:24;5.23;;;1.80;;
46308;SDS011;32037;50.820;6.494;2023-12-22T14:19:55;2.80;;;1.53;;
46308;SDS011;32037;50.820;6.494;2023-12-22T14:22:23;1.83;;;1.00;;
46308;SDS011;32037;50.820;6.494;2023-12-22T14:24:52;2.60;;;1.60;;
46308;SDS011;32037;50.820;6.494;2023-12-22T14:27:23;3.63;;;1.10;;
46308;SDS011;32037;50.820;6.494;2023-12-22T14:29:52;3.27;;;1.60;;
46308;SDS011;32037;50.820;6.494;2023-12-22T14:32:21;2.50;;;1.10;;
46308;SDS011;32037;50.820;6.494;2023-12-22T14:34:49;2.33;;;1.50;;
46308;SDS011;32037;50.820;6.494;2023-12-22T14:37:18;2.97;;;1.57;;
46308;SDS011;32037;50.820;6.494;2023-12-22T14:39:46;2.60;;;1.10;;
46308;SDS011;32037;50.820;6.494;2023-12-22T14:42:15;2.90;;;1.40;;
46308;SDS011;32037;50.820;6.494;2023-12-22T14:44:43;2.50;;;1.37;;
46308;SDS011;32037;50.820;6.494;2023-12-22T14:47:11;3.20;;;1.70;;
46308;SDS011;32037;50.820;6.494;2023-12-22T14:49:41;3.30;;;1.60;;
46308;SDS011;32037;50.820;6.494;2023-12-22T14:52:10;1.83;;;1.30;;
46308;SDS011;32037;50.820;6.494;2023-12-22T14:54:38;1.90;;;1.30;;
46308;SDS011;32037;50.820;6.494;2023-12-22T14:57:06;1.87;;;1.47;;
46308;SDS011;32037;50.820;6.494;2023-12-22T14:59:34;4.43;;;1.90;;
46308;SDS011;32037;50.820;6.494;2023-12-22T15:02:02;3.63;;;1.53;;
46308;SDS011;32037;50.820;6.494;2023-12-22T15:04:31;2.70;;;1.50;;
46308;SDS011;32037;50.820;6.494;2023-12-22T15:07:02;2.00;;;1.23;;